sensor_id;sensor_type;location;lat;lon;timestamp;temperature;humidity
40257;DHT22;25977;45.462;9.210;2024-02-28T00:01:52;11.80;99.90
40257;DHT22;25977;45.462;9.210;2024-02-28T00:04:18;11.70;99.90
40257;DHT22;25977;45.462;9.210;2024-02-28T00:06:44;11.80;99.90
40257;DHT22;25977;45.462;9.210;2024-02-28T00:09:12;11.80;99.90
40257;DHT22;25977;45.462;9.210;2024-02-28T00:11:46;11.80;99.90
40257;DHT22;25977;45.462;9.210;2024-02-28T00:14:14;11.80;99.90
40257;DHT22;25977;45.462;9.210;2024-02-28T00:16:41;11.80;99.90
40257;DHT22;25977;45.462;9.210;2024-02-28T00:19:08;11.70;99.90
40257;DHT22;25977;45.462;9.210;2024-02-28T00:21:33;11.80;99.90
40257;DHT22;25977;45.462;9.210;2024-02-28T00:23:59;11.80;99.90
40257;DHT22;25977;45.462;9.210;2024-02-28T00:26:25;11.80;99.90
40257;DHT22;25977;45.462;9.210;2024-02-28T00:28:51;11.80;99.90
40257;DHT22;25977;45.462;9.210;2024-02-28T00:31:17;11.80;99.90
40257;DHT22;25977;45.462;9.210;2024-02-28T00:33:43;11.80;99.90
40257;DHT22;25977;45.462;9.210;2024-02-28T00:36:08;11.80;99.90
40257;DHT22;25977;45.462;9.210;2024-02-28T00:38:34;11.80;99.90
40257;DHT22;25977;45.462;9.210;2024-02-28T00:41:00;11.80;99.90
40257;DHT22;25977;45.462;9.210;2024-02-28T00:43:25;11.80;99.90
40257;DHT22;25977;45.462;9.210;2024-02-28T00:45:51;11.80;99.90
40257;DHT22;25977;45.462;9.210;2024-02-28T00:48:16;11.80;99.90
40257;DHT22;25977;45.462;9.210;2024-02-28T00:50:42;11.80;99.90
40257;DHT22;25977;45.462;9.210;2024-02-28T00:53:08;11.80;99.90
40257;DHT22;25977;45.462;9.210;2024-02-28T00:55:33;11.70;99.90
40257;DHT22;25977;45.462;9.210;2024-02-28T00:57:59;11.70;99.90
40257;DHT22;25977;45.462;9.210;2024-02-28T01:00:25;11.70;99.90
40257;DHT22;25977;45.462;9.210;2024-02-28T01:02:50;11.70;99.90
40257;DHT22;25977;45.462;9.210;2024-02-28T01:05:16;11.60;99.90
40257;DHT22;25977;45.462;9.210;2024-02-28T01:07:42;11.60;99.90
40257;DHT22;25977;45.462;9.210;2024-02-28T01:10:07;11.50;99.90
40257;DHT22;25977;45.462;9.210;2024-02-28T01:12:33;11.50;99.90
40257;DHT22;25977;45.462;9.210;2024-02-28T01:14:59;11.40;99.90
40257;DHT22;25977;45.462;9.210;2024-02-28T01:17:24;11.50;99.90
40257;DHT22;25977;45.462;9.210;2024-02-28T01:19:50;11.50;99.90
40257;DHT22;25977;45.462;9.210;2024-02-28T01:22:16;11.50;99.90
40257;DHT22;25977;45.462;9.210;2024-02-28T01:24:41;11.60;99.90
40257;DHT22;25977;45.462;9.210;2024-02-28T01:27:07;11.40;99.90
40257;DHT22;25977;45.462;9.210;2024-02-28T01:29:33;11.50;99.90
40257;DHT22;25977;45.462;9.210;2024-02-28T01:31:58;11.40;99.90
40257;DHT22;25977;45.462;9.210;2024-02-28T01:34:24;11.40;99.90
40257;DHT22;25977;45.462;9.210;2024-02-28T01:36:49;11.40;99.90
40257;DHT22;25977;45.462;9.210;2024-02-28T01:39:15;11.40;99.90
40257;DHT22;25977;45.462;9.210;2024-02-28T01:41:41;11.50;99.90
40257;DHT22;25977;45.462;9.210;2024-02-28T01:44:08;11.50;99.90
40257;DHT22;25977;45.462;9.210;2024-02-28T01:46:34;11.60;99.90
40257;DHT22;25977;45.462;9.210;2024-02-28T01:49:00;11.60;99.90
40257;DHT22;25977;45.462;9.210;2024-02-28T01:51:26;11.60;99.90
40257;DHT22;25977;45.462;9.210;2024-02-28T01:53:54;11.60;99.90
40257;DHT22;25977;45.462;9.210;2024-02-28T01:56:20;11.70;99.90
40257;DHT22;25977;45.462;9.210;2024-02-28T01:58:50;11.70;99.90
40257;DHT22;25977;45.462;9.210;2024-02-28T02:01:16;11.70;99.90
40257;DHT22;25977;45.462;9.210;2024-02-28T02:03:48;11.60;99.90
40257;DHT22;25977;45.462;9.210;2024-02-28T02:06:14;11.60;99.90
40257;DHT22;25977;45.462;9.210;2024-02-28T02:08:40;11.70;99.90
40257;DHT22;25977;45.462;9.210;2024-02-28T02:11:08;11.70;99.90
40257;DHT22;25977;45.462;9.210;2024-02-28T02:13:34;11.70;99.90
40257;DHT22;25977;45.462;9.210;2024-02-28T02:16:01;11.70;99.90
40257;DHT22;25977;45.462;9.210;2024-02-28T02:18:26;11.70;99.90
40257;DHT22;25977;45.462;9.210;2024-02-28T02:20:59;11.80;99.90
40257;DHT22;25977;45.462;9.210;2024-02-28T02:23:26;11.80;99.90
40257;DHT22;25977;45.462;9.210;2024-02-28T02:25:52;11.80;99.90
40257;DHT22;25977;45.462;9.210;2024-02-28T02:28:17;11.80;99.90
40257;DHT22;25977;45.462;9.210;2024-02-28T02:30:43;11.70;99.90
40257;DHT22;25977;45.462;9.210;2024-02-28T02:33:09;11.80;99.90
40257;DHT22;25977;45.462;9.210;2024-02-28T02:35:35;11.80;99.90
40257;DHT22;25977;45.462;9.210;2024-02-28T02:38:00;11.80;99.90
40257;DHT22;25977;45.462;9.210;2024-02-28T02:40:26;11.80;99.90
40257;DHT22;25977;45.462;9.210;2024-02-28T02:42:52;11.80;99.90
40257;DHT22;25977;45.462;9.210;2024-02-28T02:45:18;11.80;99.90
40257;DHT22;25977;45.462;9.210;2024-02-28T02:47:43;11.80;99.90
40257;DHT22;25977;45.462;9.210;2024-02-28T02:50:10;11.90;99.90
40257;DHT22;25977;45.462;9.210;2024-02-28T02:52:36;11.80;99.90
40257;DHT22;25977;45.462;9.210;2024-02-28T02:55:02;11.90;99.90
40257;DHT22;25977;45.462;9.210;2024-02-28T02:57:28;11.90;99.90
40257;DHT22;25977;45.462;9.210;2024-02-28T02:59:53;11.90;99.90
40257;DHT22;25977;45.462;9.210;2024-02-28T03:02:19;11.90;99.90
40257;DHT22;25977;45.462;9.210;2024-02-28T03:04:45;11.90;99.90
40257;DHT22;25977;45.462;9.210;2024-02-28T03:07:11;11.90;99.90
40257;DHT22;25977;45.462;9.210;2024-02-28T03:09:37;11.90;99.90
40257;DHT22;25977;45.462;9.210;2024-02-28T03:12:02;11.90;99.90
40257;DHT22;25977;45.462;9.210;2024-02-28T03:14:28;11.90;99.90
40257;DHT22;25977;45.462;9.210;2024-02-28T03:16:54;11.90;99.90
40257;DHT22;25977;45.462;9.210;2024-02-28T03:19:20;11.80;99.90
40257;DHT22;25977;45.462;9.210;2024-02-28T03:21:46;11.90;99.90
40257;DHT22;25977;45.462;9.210;2024-02-28T03:24:15;11.90;99.90
40257;DHT22;25977;45.462;9.210;2024-02-28T03:26:40;11.90;99.90
40257;DHT22;25977;45.462;9.210;2024-02-28T03:29:06;11.90;99.90
40257;DHT22;25977;45.462;9.210;2024-02-28T03:31:32;11.90;99.90
40257;DHT22;25977;45.462;9.210;2024-02-28T03:33:57;11.90;99.90
40257;DHT22;25977;45.462;9.210;2024-02-28T03:36:23;11.90;99.90
40257;DHT22;25977;45.462;9.210;2024-02-28T03:38:49;11.90;99.90
40257;DHT22;25977;45.462;9.210;2024-02-28T03:41:14;11.90;99.90
40257;DHT22;25977;45.462;9.210;2024-02-28T03:43:40;11.90;99.90
40257;DHT22;25977;45.462;9.210;2024-02-28T03:46:06;11.90;99.90
40257;DHT22;25977;45.462;9.210;2024-02-28T03:48:32;11.90;99.90
40257;DHT22;25977;45.462;9.210;2024-02-28T03:50:57;11.90;99.90
40257;DHT22;25977;45.462;9.210;2024-02-28T03:53:23;11.90;99.90
40257;DHT22;25977;45.462;9.210;2024-02-28T03:55:49;11.90;99.90
40257;DHT22;25977;45.462;9.210;2024-02-28T03:58:15;11.90;99.90
40257;DHT22;25977;45.462;9.210;2024-02-28T04:00:41;11.90;99.90
40257;DHT22;25977;45.462;9.210;2024-02-28T04:03:10;11.90;99.90
40257;DHT22;25977;45.462;9.210;2024-02-28T04:05:35;12.00;99.90
40257;DHT22;25977;45.462;9.210;2024-02-28T04:08:01;12.00;99.90
40257;DHT22;25977;45.462;9.210;2024-02-28T04:10:27;12.00;99.90
40257;DHT22;25977;45.462;9.210;2024-02-28T04:12:52;12.00;99.90
40257;DHT22;25977;45.462;9.210;2024-02-28T04:15:18;11.90;99.90
40257;DHT22;25977;45.462;9.210;2024-02-28T04:17:44;11.90;99.90
40257;DHT22;25977;45.462;9.210;2024-02-28T04:20:13;11.90;99.90
40257;DHT22;25977;45.462;9.210;2024-02-28T04:22:39;11.90;99.90
40257;DHT22;25977;45.462;9.210;2024-02-28T04:25:06;12.00;99.90
40257;DHT22;25977;45.462;9.210;2024-02-28T04:27:33;12.00;99.90
40257;DHT22;25977;45.462;9.210;2024-02-28T04:29:59;12.00;99.90
40257;DHT22;25977;45.462;9.210;2024-02-28T04:32:24;12.00;99.90
40257;DHT22;25977;45.462;9.210;2024-02-28T04:34:50;12.00;99.90
40257;DHT22;25977;45.462;9.210;2024-02-28T04:37:16;12.00;99.90
40257;DHT22;25977;45.462;9.210;2024-02-28T04:39:41;12.00;99.90
40257;DHT22;25977;45.462;9.210;2024-02-28T04:42:07;12.00;99.90
40257;DHT22;25977;45.462;9.210;2024-02-28T04:44:33;12.00;99.90
40257;DHT22;25977;45.462;9.210;2024-02-28T04:46:58;12.00;99.90
40257;DHT22;25977;45.462;9.210;2024-02-28T04:49:24;12.00;99.90
40257;DHT22;25977;45.462;9.210;2024-02-28T04:51:50;12.00;99.90
40257;DHT22;25977;45.462;9.210;2024-02-28T04:54:15;12.00;99.90
40257;DHT22;25977;45.462;9.210;2024-02-28T04:56:41;12.00;99.90
40257;DHT22;25977;45.462;9.210;2024-02-28T04:59:08;12.00;99.90
40257;DHT22;25977;45.462;9.210;2024-02-28T05:01:34;12.00;99.90
40257;DHT22;25977;45.462;9.210;2024-02-28T05:04:00;12.00;99.90
40257;DHT22;25977;45.462;9.210;2024-02-28T05:06:27;12.00;99.90
40257;DHT22;25977;45.462;9.210;2024-02-28T05:08:53;12.00;99.90
40257;DHT22;25977;45.462;9.210;2024-02-28T05:11:19;12.10;99.90
40257;DHT22;25977;45.462;9.210;2024-02-28T05:13:44;12.00;99.90
40257;DHT22;25977;45.462;9.210;2024-02-28T05:16:14;12.10;99.90
40257;DHT22;25977;45.462;9.210;2024-02-28T05:18:40;12.10;99.90
40257;DHT22;25977;45.462;9.210;2024-02-28T05:21:06;12.10;99.90
40257;DHT22;25977;45.462;9.210;2024-02-28T05:23:31;12.10;99.90
40257;DHT22;25977;45.462;9.210;2024-02-28T05:25:57;12.10;99.90
40257;DHT22;25977;45.462;9.210;2024-02-28T05:28:23;12.00;99.90
40257;DHT22;25977;45.462;9.210;2024-02-28T05:30:49;11.90;99.90
40257;DHT22;25977;45.462;9.210;2024-02-28T05:33:15;12.00;99.90
40257;DHT22;25977;45.462;9.210;2024-02-28T05:35:41;12.00;99.90
40257;DHT22;25977;45.462;9.210;2024-02-28T05:38:07;11.90;99.90
40257;DHT22;25977;45.462;9.210;2024-02-28T05:40:33;11.90;99.90
40257;DHT22;25977;45.462;9.210;2024-02-28T05:42:58;11.90;99.90
40257;DHT22;25977;45.462;9.210;2024-02-28T05:45:24;11.80;99.90
40257;DHT22;25977;45.462;9.210;2024-02-28T05:47:49;11.90;99.90
40257;DHT22;25977;45.462;9.210;2024-02-28T05:50:15;11.70;99.90
40257;DHT22;25977;45.462;9.210;2024-02-28T05:52:44;11.80;99.90
40257;DHT22;25977;45.462;9.210;2024-02-28T05:55:09;11.80;99.90
40257;DHT22;25977;45.462;9.210;2024-02-28T05:57:35;11.80;99.90
40257;DHT22;25977;45.462;9.210;2024-02-28T06:00:01;11.70;99.90
40257;DHT22;25977;45.462;9.210;2024-02-28T06:02:37;11.70;99.90
40257;DHT22;25977;45.462;9.210;2024-02-28T06:05:03;11.80;99.90
40257;DHT22;25977;45.462;9.210;2024-02-28T06:07:29;11.70;99.90
40257;DHT22;25977;45.462;9.210;2024-02-28T06:09:55;11.80;99.90
40257;DHT22;25977;45.462;9.210;2024-02-28T06:12:21;11.80;99.90
40257;DHT22;25977;45.462;9.210;2024-02-28T06:14:47;11.80;99.90
40257;DHT22;25977;45.462;9.210;2024-02-28T06:17:13;11.80;99.90
40257;DHT22;25977;45.462;9.210;2024-02-28T06:19:38;11.80;99.90
40257;DHT22;25977;45.462;9.210;2024-02-28T06:22:04;11.90;99.90
40257;DHT22;25977;45.462;9.210;2024-02-28T06:24:30;11.90;99.90
40257;DHT22;25977;45.462;9.210;2024-02-28T06:26:55;11.90;99.90
40257;DHT22;25977;45.462;9.210;2024-02-28T06:29:21;11.90;99.90
40257;DHT22;25977;45.462;9.210;2024-02-28T06:31:51;12.00;99.90
40257;DHT22;25977;45.462;9.210;2024-02-28T06:34:17;12.00;99.90
40257;DHT22;25977;45.462;9.210;2024-02-28T06:36:44;11.90;99.90
40257;DHT22;25977;45.462;9.210;2024-02-28T06:39:09;11.90;99.90
40257;DHT22;25977;45.462;9.210;2024-02-28T06:41:35;11.90;99.90
40257;DHT22;25977;45.462;9.210;2024-02-28T06:44:01;11.80;99.90
40257;DHT22;25977;45.462;9.210;2024-02-28T06:46:26;11.90;99.90
40257;DHT22;25977;45.462;9.210;2024-02-28T06:48:52;11.90;99.90
40257;DHT22;25977;45.462;9.210;2024-02-28T06:51:18;11.90;99.90
40257;DHT22;25977;45.462;9.210;2024-02-28T06:53:43;11.90;99.90
40257;DHT22;25977;45.462;9.210;2024-02-28T06:56:09;12.00;99.90
40257;DHT22;25977;45.462;9.210;2024-02-28T06:58:35;12.00;99.90
40257;DHT22;25977;45.462;9.210;2024-02-28T07:01:00;11.90;99.90
40257;DHT22;25977;45.462;9.210;2024-02-28T07:03:26;11.90;99.90
40257;DHT22;25977;45.462;9.210;2024-02-28T07:05:52;11.90;99.90
40257;DHT22;25977;45.462;9.210;2024-02-28T07:08:19;12.00;99.90
40257;DHT22;25977;45.462;9.210;2024-02-28T07:10:46;12.00;99.90
40257;DHT22;25977;45.462;9.210;2024-02-28T07:13:15;12.10;99.90
40257;DHT22;25977;45.462;9.210;2024-02-28T07:15:41;12.10;99.90
40257;DHT22;25977;45.462;9.210;2024-02-28T07:18:07;12.10;99.90
40257;DHT22;25977;45.462;9.210;2024-02-28T07:20:33;12.20;99.90
40257;DHT22;25977;45.462;9.210;2024-02-28T07:22:59;12.20;99.90
40257;DHT22;25977;45.462;9.210;2024-02-28T07:25:25;12.20;99.90
40257;DHT22;25977;45.462;9.210;2024-02-28T07:27:51;12.30;99.90
40257;DHT22;25977;45.462;9.210;2024-02-28T07:30:17;12.30;99.90
40257;DHT22;25977;45.462;9.210;2024-02-28T07:32:42;12.30;99.90
40257;DHT22;25977;45.462;9.210;2024-02-28T07:35:08;12.30;99.90
40257;DHT22;25977;45.462;9.210;2024-02-28T07:37:34;12.30;99.90
40257;DHT22;25977;45.462;9.210;2024-02-28T07:40:00;12.30;99.90
40257;DHT22;25977;45.462;9.210;2024-02-28T07:42:25;12.30;99.90
40257;DHT22;25977;45.462;9.210;2024-02-28T07:44:51;12.30;99.90
40257;DHT22;25977;45.462;9.210;2024-02-28T07:47:22;12.40;99.90
40257;DHT22;25977;45.462;9.210;2024-02-28T07:49:48;12.40;99.90
40257;DHT22;25977;45.462;9.210;2024-02-28T07:52:13;12.40;99.90
40257;DHT22;25977;45.462;9.210;2024-02-28T07:54:41;12.50;99.90
40257;DHT22;25977;45.462;9.210;2024-02-28T07:57:08;12.40;99.90
40257;DHT22;25977;45.462;9.210;2024-02-28T07:59:43;12.50;99.90
40257;DHT22;25977;45.462;9.210;2024-02-28T08:02:09;12.50;99.90
40257;DHT22;25977;45.462;9.210;2024-02-28T08:04:37;12.50;99.90
40257;DHT22;25977;45.462;9.210;2024-02-28T08:07:03;12.50;99.90
40257;DHT22;25977;45.462;9.210;2024-02-28T08:09:29;12.50;99.90
40257;DHT22;25977;45.462;9.210;2024-02-28T08:11:54;12.40;99.90
40257;DHT22;25977;45.462;9.210;2024-02-28T08:14:20;12.40;99.90
40257;DHT22;25977;45.462;9.210;2024-02-28T08:16:46;12.40;99.90
40257;DHT22;25977;45.462;9.210;2024-02-28T08:19:12;12.30;99.90
40257;DHT22;25977;45.462;9.210;2024-02-28T08:21:37;12.40;99.90
40257;DHT22;25977;45.462;9.210;2024-02-28T08:24:03;12.30;99.90
40257;DHT22;25977;45.462;9.210;2024-02-28T08:26:33;12.40;99.90
40257;DHT22;25977;45.462;9.210;2024-02-28T08:28:58;12.40;99.90
40257;DHT22;25977;45.462;9.210;2024-02-28T08:31:24;12.40;99.90
40257;DHT22;25977;45.462;9.210;2024-02-28T08:33:50;12.40;99.90
40257;DHT22;25977;45.462;9.210;2024-02-28T08:36:15;12.50;99.90
40257;DHT22;25977;45.462;9.210;2024-02-28T08:38:41;12.50;99.90
40257;DHT22;25977;45.462;9.210;2024-02-28T08:41:07;12.60;99.90
40257;DHT22;25977;45.462;9.210;2024-02-28T08:43:38;12.70;99.90
40257;DHT22;25977;45.462;9.210;2024-02-28T08:46:04;12.70;99.90
40257;DHT22;25977;45.462;9.210;2024-02-28T08:48:29;12.70;99.90
40257;DHT22;25977;45.462;9.210;2024-02-28T08:50:55;12.80;99.90
40257;DHT22;25977;45.462;9.210;2024-02-28T08:53:20;12.80;99.90
40257;DHT22;25977;45.462;9.210;2024-02-28T08:55:46;12.80;99.90
40257;DHT22;25977;45.462;9.210;2024-02-28T08:58:12;12.90;99.90
40257;DHT22;25977;45.462;9.210;2024-02-28T09:00:37;12.90;99.90
40257;DHT22;25977;45.462;9.210;2024-02-28T09:03:04;13.00;99.90
40257;DHT22;25977;45.462;9.210;2024-02-28T09:05:30;13.00;99.90
40257;DHT22;25977;45.462;9.210;2024-02-28T09:07:56;13.00;99.90
40257;DHT22;25977;45.462;9.210;2024-02-28T09:10:23;13.10;99.90
40257;DHT22;25977;45.462;9.210;2024-02-28T09:12:51;13.10;99.90
40257;DHT22;25977;45.462;9.210;2024-02-28T09:15:17;13.10;99.90
40257;DHT22;25977;45.462;9.210;2024-02-28T09:17:43;13.10;99.90
40257;DHT22;25977;45.462;9.210;2024-02-28T09:20:10;13.10;99.90
40257;DHT22;25977;45.462;9.210;2024-02-28T09:22:36;13.10;99.90
40257;DHT22;25977;45.462;9.210;2024-02-28T09:25:02;13.20;99.90
40257;DHT22;25977;45.462;9.210;2024-02-28T09:27:30;13.20;99.90
40257;DHT22;25977;45.462;9.210;2024-02-28T09:29:56;13.20;99.90
40257;DHT22;25977;45.462;9.210;2024-02-28T09:32:21;13.30;99.90
40257;DHT22;25977;45.462;9.210;2024-02-28T09:34:47;13.30;99.90
40257;DHT22;25977;45.462;9.210;2024-02-28T09:37:14;13.30;99.90
40257;DHT22;25977;45.462;9.210;2024-02-28T09:39:40;13.40;99.90
40257;DHT22;25977;45.462;9.210;2024-02-28T09:42:07;13.50;99.90
40257;DHT22;25977;45.462;9.210;2024-02-28T09:44:34;13.50;99.90
40257;DHT22;25977;45.462;9.210;2024-02-28T09:47:00;13.60;99.90
40257;DHT22;25977;45.462;9.210;2024-02-28T09:49:26;13.60;99.90
40257;DHT22;25977;45.462;9.210;2024-02-28T09:51:54;13.60;99.90
40257;DHT22;25977;45.462;9.210;2024-02-28T09:54:22;13.70;99.90
40257;DHT22;25977;45.462;9.210;2024-02-28T09:56:51;13.70;99.90
40257;DHT22;25977;45.462;9.210;2024-02-28T09:59:20;13.70;99.90
40257;DHT22;25977;45.462;9.210;2024-02-28T10:01:50;13.80;99.90
40257;DHT22;25977;45.462;9.210;2024-02-28T10:04:18;13.80;99.90
40257;DHT22;25977;45.462;9.210;2024-02-28T10:06:46;13.90;99.90
40257;DHT22;25977;45.462;9.210;2024-02-28T10:09:14;13.90;99.90
40257;DHT22;25977;45.462;9.210;2024-02-28T10:11:41;14.00;99.90
40257;DHT22;25977;45.462;9.210;2024-02-28T10:14:09;14.10;99.90
40257;DHT22;25977;45.462;9.210;2024-02-28T10:16:34;14.10;99.90
40257;DHT22;25977;45.462;9.210;2024-02-28T10:19:00;14.20;99.90
40257;DHT22;25977;45.462;9.210;2024-02-28T10:21:26;14.20;99.90
40257;DHT22;25977;45.462;9.210;2024-02-28T10:23:52;14.20;99.90
40257;DHT22;25977;45.462;9.210;2024-02-28T10:26:17;14.20;99.90
40257;DHT22;25977;45.462;9.210;2024-02-28T10:28:43;14.30;99.90
40257;DHT22;25977;45.462;9.210;2024-02-28T10:31:10;14.30;99.90
40257;DHT22;25977;45.462;9.210;2024-02-28T10:33:36;14.30;99.90
40257;DHT22;25977;45.462;9.210;2024-02-28T10:36:05;14.40;99.90
40257;DHT22;25977;45.462;9.210;2024-02-28T10:38:32;14.30;99.90
40257;DHT22;25977;45.462;9.210;2024-02-28T10:41:04;14.40;99.90
40257;DHT22;25977;45.462;9.210;2024-02-28T10:43:30;14.40;99.90
40257;DHT22;25977;45.462;9.210;2024-02-28T10:45:59;14.50;99.90
40257;DHT22;25977;45.462;9.210;2024-02-28T10:48:25;14.60;99.90
40257;DHT22;25977;45.462;9.210;2024-02-28T10:50:51;14.70;99.90
40257;DHT22;25977;45.462;9.210;2024-02-28T10:53:21;14.80;99.90
40257;DHT22;25977;45.462;9.210;2024-02-28T10:55:49;14.90;99.90
40257;DHT22;25977;45.462;9.210;2024-02-28T10:58:15;15.00;99.90
40257;DHT22;25977;45.462;9.210;2024-02-28T11:00:42;15.10;99.90
40257;DHT22;25977;45.462;9.210;2024-02-28T11:03:11;15.10;99.90
40257;DHT22;25977;45.462;9.210;2024-02-28T11:05:39;15.20;99.90
40257;DHT22;25977;45.462;9.210;2024-02-28T11:08:09;15.20;99.90
40257;DHT22;25977;45.462;9.210;2024-02-28T11:10:35;15.20;99.90
40257;DHT22;25977;45.462;9.210;2024-02-28T11:13:01;15.30;99.90
40257;DHT22;25977;45.462;9.210;2024-02-28T11:15:26;15.30;99.90
40257;DHT22;25977;45.462;9.210;2024-02-28T11:17:53;15.40;99.90
40257;DHT22;25977;45.462;9.210;2024-02-28T11:20:19;15.40;99.90
40257;DHT22;25977;45.462;9.210;2024-02-28T11:22:45;15.40;99.90
40257;DHT22;25977;45.462;9.210;2024-02-28T11:25:11;15.50;99.90
40257;DHT22;25977;45.462;9.210;2024-02-28T11:27:49;15.50;99.90
40257;DHT22;25977;45.462;9.210;2024-02-28T11:30:15;15.60;99.90
40257;DHT22;25977;45.462;9.210;2024-02-28T11:32:41;15.50;99.40
40257;DHT22;25977;45.462;9.210;2024-02-28T11:35:07;15.50;99.80
40257;DHT22;25977;45.462;9.210;2024-02-28T11:37:34;15.60;99.90
40257;DHT22;25977;45.462;9.210;2024-02-28T11:40:00;15.60;99.80
40257;DHT22;25977;45.462;9.210;2024-02-28T11:42:25;15.60;99.50
40257;DHT22;25977;45.462;9.210;2024-02-28T11:44:55;15.70;99.30
40257;DHT22;25977;45.462;9.210;2024-02-28T11:47:22;15.70;99.10
40257;DHT22;25977;45.462;9.210;2024-02-28T11:49:49;15.80;99.20
40257;DHT22;25977;45.462;9.210;2024-02-28T11:52:14;15.80;99.10
40257;DHT22;25977;45.462;9.210;2024-02-28T11:54:40;15.90;99.10
40257;DHT22;25977;45.462;9.210;2024-02-28T11:57:07;15.90;98.70
40257;DHT22;25977;45.462;9.210;2024-02-28T11:59:34;15.90;98.40
40257;DHT22;25977;45.462;9.210;2024-02-28T12:02:00;15.80;97.50
40257;DHT22;25977;45.462;9.210;2024-02-28T12:04:25;15.80;98.00
40257;DHT22;25977;45.462;9.210;2024-02-28T12:06:51;15.90;98.20
40257;DHT22;25977;45.462;9.210;2024-02-28T12:09:17;16.00;98.40
40257;DHT22;25977;45.462;9.210;2024-02-28T12:11:45;16.00;97.50
40257;DHT22;25977;45.462;9.210;2024-02-28T12:14:12;16.10;97.80
40257;DHT22;25977;45.462;9.210;2024-02-28T12:16:39;16.20;98.00
40257;DHT22;25977;45.462;9.210;2024-02-28T12:19:11;16.20;97.80
40257;DHT22;25977;45.462;9.210;2024-02-28T12:21:37;16.20;97.70
40257;DHT22;25977;45.462;9.210;2024-02-28T12:24:06;16.10;97.70
40257;DHT22;25977;45.462;9.210;2024-02-28T12:26:32;16.10;97.70
40257;DHT22;25977;45.462;9.210;2024-02-28T12:28:58;16.10;97.60
40257;DHT22;25977;45.462;9.210;2024-02-28T12:31:24;16.10;97.30
40257;DHT22;25977;45.462;9.210;2024-02-28T12:33:49;15.90;97.40
40257;DHT22;25977;45.462;9.210;2024-02-28T12:36:15;16.00;97.70
40257;DHT22;25977;45.462;9.210;2024-02-28T12:38:41;15.90;98.00
40257;DHT22;25977;45.462;9.210;2024-02-28T12:41:06;15.90;98.00
40257;DHT22;25977;45.462;9.210;2024-02-28T12:43:32;15.90;98.00
40257;DHT22;25977;45.462;9.210;2024-02-28T12:45:59;16.00;98.10
40257;DHT22;25977;45.462;9.210;2024-02-28T12:48:24;15.90;98.10
40257;DHT22;25977;45.462;9.210;2024-02-28T12:50:50;15.90;98.20
40257;DHT22;25977;45.462;9.210;2024-02-28T12:53:16;16.00;98.10
40257;DHT22;25977;45.462;9.210;2024-02-28T12:55:41;16.00;98.00
40257;DHT22;25977;45.462;9.210;2024-02-28T12:58:08;15.90;97.20
40257;DHT22;25977;45.462;9.210;2024-02-28T13:00:33;15.80;97.50
40257;DHT22;25977;45.462;9.210;2024-02-28T13:02:59;15.80;97.50
40257;DHT22;25977;45.462;9.210;2024-02-28T13:05:25;15.80;97.40
40257;DHT22;25977;45.462;9.210;2024-02-28T13:07:51;15.90;97.30
40257;DHT22;25977;45.462;9.210;2024-02-28T13:10:18;15.90;97.10
40257;DHT22;25977;45.462;9.210;2024-02-28T13:12:44;15.90;97.10
40257;DHT22;25977;45.462;9.210;2024-02-28T13:15:09;15.90;97.60
40257;DHT22;25977;45.462;9.210;2024-02-28T13:17:35;15.90;97.90
40257;DHT22;25977;45.462;9.210;2024-02-28T13:20:01;15.90;98.10
40257;DHT22;25977;45.462;9.210;2024-02-28T13:22:28;15.90;98.20
40257;DHT22;25977;45.462;9.210;2024-02-28T13:24:54;15.90;98.10
40257;DHT22;25977;45.462;9.210;2024-02-28T13:27:20;16.00;98.00
40257;DHT22;25977;45.462;9.210;2024-02-28T13:29:46;16.10;98.00
40257;DHT22;25977;45.462;9.210;2024-02-28T13:32:12;16.20;98.10
40257;DHT22;25977;45.462;9.210;2024-02-28T13:34:39;16.10;97.90
40257;DHT22;25977;45.462;9.210;2024-02-28T13:37:05;16.20;98.00
40257;DHT22;25977;45.462;9.210;2024-02-28T13:39:31;16.20;97.80
40257;DHT22;25977;45.462;9.210;2024-02-28T13:41:58;16.30;98.00
40257;DHT22;25977;45.462;9.210;2024-02-28T13:44:24;16.20;98.50
40257;DHT22;25977;45.462;9.210;2024-02-28T13:46:52;16.20;98.90
40257;DHT22;25977;45.462;9.210;2024-02-28T13:49:19;16.00;99.30
40257;DHT22;25977;45.462;9.210;2024-02-28T13:51:46;16.10;99.50
40257;DHT22;25977;45.462;9.210;2024-02-28T13:54:14;16.30;99.50
40257;DHT22;25977;45.462;9.210;2024-02-28T13:56:40;16.10;99.50
40257;DHT22;25977;45.462;9.210;2024-02-28T13:59:06;16.00;99.60
40257;DHT22;25977;45.462;9.210;2024-02-28T14:01:32;15.70;99.90
40257;DHT22;25977;45.462;9.210;2024-02-28T14:03:58;15.70;99.90
40257;DHT22;25977;45.462;9.210;2024-02-28T14:06:24;15.90;99.90
40257;DHT22;25977;45.462;9.210;2024-02-28T14:08:50;16.00;99.90
40257;DHT22;25977;45.462;9.210;2024-02-28T14:11:17;16.10;99.90
40257;DHT22;25977;45.462;9.210;2024-02-28T14:13:43;16.00;99.90
40257;DHT22;25977;45.462;9.210;2024-02-28T14:16:08;16.00;99.90
40257;DHT22;25977;45.462;9.210;2024-02-28T14:18:34;16.00;99.80
40257;DHT22;25977;45.462;9.210;2024-02-28T14:21:00;16.10;99.90
40257;DHT22;25977;45.462;9.210;2024-02-28T14:23:28;16.10;99.90
40257;DHT22;25977;45.462;9.210;2024-02-28T14:25:53;15.90;99.90
40257;DHT22;25977;45.462;9.210;2024-02-28T14:28:19;15.80;99.90
40257;DHT22;25977;45.462;9.210;2024-02-28T14:30:45;15.80;99.90
40257;DHT22;25977;45.462;9.210;2024-02-28T14:33:11;15.90;99.90
40257;DHT22;25977;45.462;9.210;2024-02-28T14:35:37;16.00;99.90
40257;DHT22;25977;45.462;9.210;2024-02-28T14:38:04;16.00;99.90
40257;DHT22;25977;45.462;9.210;2024-02-28T14:40:32;15.60;99.90
40257;DHT22;25977;45.462;9.210;2024-02-28T14:42:59;15.50;99.90
40257;DHT22;25977;45.462;9.210;2024-02-28T14:45:24;15.70;99.90
40257;DHT22;25977;45.462;9.210;2024-02-28T14:47:53;15.80;99.90
40257;DHT22;25977;45.462;9.210;2024-02-28T14:50:19;15.80;99.90
40257;DHT22;25977;45.462;9.210;2024-02-28T14:52:46;15.50;99.90
40257;DHT22;25977;45.462;9.210;2024-02-28T14:55:12;15.50;99.90
40257;DHT22;25977;45.462;9.210;2024-02-28T14:57:38;15.70;99.90
40257;DHT22;25977;45.462;9.210;2024-02-28T15:00:04;15.90;99.90
40257;DHT22;25977;45.462;9.210;2024-02-28T15:02:34;15.90;99.90
40257;DHT22;25977;45.462;9.210;2024-02-28T15:04:59;16.00;99.90
40257;DHT22;25977;45.462;9.210;2024-02-28T15:07:25;16.00;99.80
40257;DHT22;25977;45.462;9.210;2024-02-28T15:09:51;15.90;99.50
40257;DHT22;25977;45.462;9.210;2024-02-28T15:12:16;16.00;99.50
40257;DHT22;25977;45.462;9.210;2024-02-28T15:14:42;16.00;99.40
40257;DHT22;25977;45.462;9.210;2024-02-28T15:17:08;16.00;99.40
40257;DHT22;25977;45.462;9.210;2024-02-28T15:19:34;16.10;99.30
40257;DHT22;25977;45.462;9.210;2024-02-28T15:21:59;16.00;99.30
40257;DHT22;25977;45.462;9.210;2024-02-28T15:24:25;16.10;99.30